BAW823 EGLL-EHAM
Flight info
| Callsign | BAW823 |
|---|---|
| Flight time | N/A |
| Altitude | 29000 |
| Route | BPK Q295 BRAIN M197 REDFA |
| Aircraft | A320/M-SDE3FGHIRWY/LB1 |
Departure
| Time | N/A |
|---|---|
| Airport | London Heathrow Airport (EGLL) |
Arrival
| Time | 2026-04-28 19:46 |
|---|---|
| Airport | Amsterdam Airport Schiphol (EHAM) |
| Time | Latitude | Longitude | Altitude | Speed | Heading |
|---|---|---|---|---|---|
| 2026-04-28 19:16 | 52.05018 | 2.06176 | 29265 ft | 407 kts | 76° |
| 2026-04-28 19:17 | 52.06377 | 2.15067 | 29270 ft | 408 kts | 76° |
| 2026-04-28 19:17 | 52.07738 | 2.24018 | 29249 ft | 409 kts | 76° |
| 2026-04-28 19:18 | 52.08409 | 2.28441 | 28494 ft | 409 kts | 76° |
| 2026-04-28 19:18 | 52.09089 | 2.32941 | 27333 ft | 412 kts | 76° |
| 2026-04-28 19:18 | 52.09772 | 2.37475 | 26214 ft | 414 kts | 76° |
| 2026-04-28 19:18 | 52.10444 | 2.41959 | 25134 ft | 401 kts | 76° |
| 2026-04-28 19:19 | 52.11130 | 2.46309 | 24127 ft | 398 kts | 72° |
| 2026-04-28 19:19 | 52.12148 | 2.50529 | 22990 ft | 406 kts | 64° |
| 2026-04-28 19:19 | 52.13594 | 2.54624 | 22464 ft | 424 kts | 60° |
| 2026-04-28 19:19 | 52.15118 | 2.58755 | 22175 ft | 428 kts | 60° |
| 2026-04-28 19:20 | 52.16633 | 2.62922 | 21750 ft | 427 kts | 60° |
| 2026-04-28 19:20 | 52.18113 | 2.67050 | 21319 ft | 426 kts | 61° |
| 2026-04-28 19:20 | 52.19594 | 2.71198 | 20878 ft | 423 kts | 61° |
| 2026-04-28 19:20 | 52.21070 | 2.75328 | 20350 ft | 418 kts | 61° |
| 2026-04-28 19:21 | 52.22525 | 2.79390 | 19596 ft | 411 kts | 61° |
| 2026-04-28 19:21 | 52.23970 | 2.83420 | 19176 ft | 415 kts | 61° |
| 2026-04-28 19:21 | 52.25398 | 2.87506 | 18571 ft | 411 kts | 64° |
| 2026-04-28 19:21 | 52.26528 | 2.91764 | 17897 ft | 408 kts | 68° |
| 2026-04-28 19:22 | 52.27612 | 2.96011 | 17223 ft | 403 kts | 68° |
| 2026-04-28 19:22 | 52.28318 | 2.98801 | 16796 ft | 401 kts | 68° |
| 2026-04-28 19:22 | 52.29716 | 3.04356 | 15950 ft | 397 kts | 68° |
| 2026-04-28 19:22 | 52.30753 | 3.08482 | 15446 ft | 389 kts | 68° |
| 2026-04-28 19:23 | 52.31787 | 3.12609 | 15277 ft | 393 kts | 68° |
| 2026-04-28 19:23 | 52.32818 | 3.16727 | 15291 ft | 392 kts | 68° |
| 2026-04-28 19:23 | 52.33851 | 3.20863 | 15292 ft | 395 kts | 68° |
| 2026-04-28 19:23 | 52.34887 | 3.25011 | 15290 ft | 391 kts | 68° |
| 2026-04-28 19:24 | 52.35918 | 3.29140 | 15291 ft | 393 kts | 68° |
| 2026-04-28 19:24 | 52.36955 | 3.33290 | 15294 ft | 394 kts | 68° |
| 2026-04-28 19:24 | 52.37984 | 3.37413 | 15288 ft | 393 kts | 68° |
| 2026-04-28 19:24 | 52.39022 | 3.41583 | 15287 ft | 394 kts | 68° |
| 2026-04-28 19:25 | 52.40051 | 3.45717 | 15268 ft | 392 kts | 68° |
| 2026-04-28 19:25 | 52.41057 | 3.49766 | 14596 ft | 388 kts | 68° |
| 2026-04-28 19:25 | 52.42069 | 3.53852 | 13820 ft | 384 kts | 68° |
| 2026-04-28 19:25 | 52.43066 | 3.57894 | 12957 ft | 382 kts | 68° |
| 2026-04-28 19:26 | 52.44046 | 3.61881 | 12507 ft | 369 kts | 69° |
| 2026-04-28 19:26 | 52.44989 | 3.65726 | 11860 ft | 361 kts | 69° |
| 2026-04-28 19:26 | 52.45923 | 3.69539 | 11044 ft | 360 kts | 68° |
| 2026-04-28 19:26 | 52.46848 | 3.73316 | 10465 ft | 354 kts | 69° |
| 2026-04-28 19:27 | 52.47452 | 3.75786 | 10290 ft | 347 kts | 69° |
| 2026-04-28 19:27 | 52.48609 | 3.80521 | 10099 ft | 322 kts | 69° |
| 2026-04-28 19:27 | 52.49418 | 3.83841 | 9960 ft | 305 kts | 69° |
| 2026-04-28 19:27 | 52.50178 | 3.86969 | 9832 ft | 292 kts | 69° |
| 2026-04-28 19:28 | 52.50914 | 3.89996 | 9711 ft | 280 kts | 69° |
| 2026-04-28 19:28 | 52.51617 | 3.92907 | 9571 ft | 269 kts | 70° |
| 2026-04-28 19:28 | 52.52012 | 3.95860 | 9440 ft | 264 kts | 85° |
| 2026-04-28 19:28 | 52.51911 | 3.98832 | 9307 ft | 259 kts | 99° |
| 2026-04-28 19:29 | 52.51355 | 4.01675 | 9181 ft | 265 kts | 110° |
| 2026-04-28 19:29 | 52.50898 | 4.03536 | 9041 ft | 265 kts | 109° |
| 2026-04-28 19:29 | 52.49977 | 4.07292 | 8505 ft | 266 kts | 110° |
| 2026-04-28 19:29 | 52.49290 | 4.10101 | 8183 ft | 264 kts | 109° |
| 2026-04-28 19:30 | 52.48614 | 4.12851 | 7858 ft | 262 kts | 109° |
| 2026-04-28 19:30 | 52.47940 | 4.15600 | 7593 ft | 258 kts | 109° |
| 2026-04-28 19:30 | 52.47279 | 4.18284 | 7465 ft | 249 kts | 109° |
| 2026-04-28 19:30 | 52.46641 | 4.20874 | 7340 ft | 241 kts | 109° |
| 2026-04-28 19:31 | 52.46025 | 4.23384 | 7219 ft | 233 kts | 109° |
| 2026-04-28 19:31 | 52.45430 | 4.25816 | 7037 ft | 228 kts | 108° |
| 2026-04-28 19:31 | 52.44845 | 4.28210 | 6810 ft | 225 kts | 108° |
| 2026-04-28 19:31 | 52.44264 | 4.30579 | 6513 ft | 225 kts | 109° |
| 2026-04-28 19:32 | 52.43680 | 4.32960 | 6179 ft | 225 kts | 110° |
| 2026-04-28 19:32 | 52.43092 | 4.35341 | 5846 ft | 225 kts | 110° |
| 2026-04-28 19:32 | 52.42512 | 4.37678 | 5585 ft | 223 kts | 110° |
| 2026-04-28 19:32 | 52.41930 | 4.40022 | 5312 ft | 222 kts | 110° |
| 2026-04-28 19:33 | 52.41355 | 4.42343 | 5035 ft | 220 kts | 110° |
| 2026-04-28 19:33 | 52.40782 | 4.44659 | 4744 ft | 218 kts | 110° |
| 2026-04-28 19:33 | 52.40216 | 4.46948 | 4474 ft | 215 kts | 110° |
| 2026-04-28 19:33 | 52.39658 | 4.49198 | 4315 ft | 212 kts | 109° |
| 2026-04-28 19:34 | 52.39101 | 4.51433 | 4285 ft | 212 kts | 110° |
| 2026-04-28 19:34 | 52.38544 | 4.53668 | 4283 ft | 213 kts | 110° |
| 2026-04-28 19:34 | 52.37985 | 4.55910 | 4281 ft | 213 kts | 110° |
| 2026-04-28 19:34 | 52.37298 | 4.58044 | 4271 ft | 215 kts | 129° |
| 2026-04-28 19:35 | 52.36009 | 4.59327 | 4274 ft | 226 kts | 161° |
| 2026-04-28 19:35 | 52.34461 | 4.59218 | 4275 ft | 225 kts | 195° |
| 2026-04-28 19:35 | 52.33214 | 4.57754 | 4215 ft | 222 kts | 226° |
| 2026-04-28 19:35 | 52.32295 | 4.55766 | 4089 ft | 217 kts | 231° |
| 2026-04-28 19:36 | 52.31477 | 4.53780 | 3949 ft | 212 kts | 232° |
| 2026-04-28 19:36 | 52.30672 | 4.51776 | 3724 ft | 211 kts | 232° |
| 2026-04-28 19:36 | 52.29869 | 4.49758 | 3466 ft | 212 kts | 232° |
| 2026-04-28 19:36 | 52.29074 | 4.47732 | 3230 ft | 212 kts | 232° |
| 2026-04-28 19:37 | 52.28280 | 4.45701 | 3055 ft | 212 kts | 232° |
| 2026-04-28 19:37 | 52.27753 | 4.44350 | 2991 ft | 213 kts | 232° |
| 2026-04-28 19:37 | 52.26684 | 4.41612 | 3011 ft | 214 kts | 233° |
| 2026-04-28 19:37 | 52.25883 | 4.39563 | 3010 ft | 214 kts | 230° |
| 2026-04-28 19:38 | 52.24849 | 4.37959 | 3017 ft | 201 kts | 201° |
| 2026-04-28 19:38 | 52.23602 | 4.36992 | 3015 ft | 197 kts | 194° |
| 2026-04-28 19:38 | 52.22345 | 4.36158 | 3014 ft | 198 kts | 193° |
| 2026-04-28 19:38 | 52.21053 | 4.35666 | 2954 ft | 182 kts | 166° |
| 2026-04-28 19:39 | 52.19846 | 4.36044 | 2712 ft | 175 kts | 154° |
| 2026-04-28 19:39 | 52.18816 | 4.36909 | 2445 ft | 160 kts | 122° |
| 2026-04-28 19:39 | 52.18412 | 4.38500 | 2182 ft | 152 kts | 97° |
| 2026-04-28 19:39 | 52.18281 | 4.40204 | 2034 ft | 152 kts | 93° |
| 2026-04-28 19:40 | 52.18180 | 4.41926 | 2006 ft | 153 kts | 92° |
| 2026-04-28 19:40 | 52.18080 | 4.43703 | 2017 ft | 161 kts | 92° |
| 2026-04-28 19:40 | 52.18115 | 4.45528 | 2025 ft | 163 kts | 75° |
| 2026-04-28 19:40 | 52.18636 | 4.47174 | 2011 ft | 166 kts | 61° |
| 2026-04-28 19:41 | 52.19256 | 4.48759 | 2006 ft | 165 kts | 62° |
| 2026-04-28 19:41 | 52.19861 | 4.50315 | 2004 ft | 165 kts | 62° |
| 2026-04-28 19:41 | 52.20473 | 4.51889 | 2011 ft | 164 kts | 62° |
| 2026-04-28 19:41 | 52.21080 | 4.53454 | 2011 ft | 163 kts | 62° |
| 2026-04-28 19:42 | 52.21690 | 4.55027 | 2003 ft | 164 kts | 61° |
| 2026-04-28 19:42 | 52.22299 | 4.56599 | 2005 ft | 163 kts | 62° |
| 2026-04-28 19:42 | 52.22904 | 4.58161 | 2007 ft | 164 kts | 62° |
| 2026-04-28 19:42 | 52.23309 | 4.59207 | 1963 ft | 165 kts | 62° |
| 2026-04-28 19:43 | 52.24119 | 4.61300 | 1737 ft | 158 kts | 62° |
| 2026-04-28 19:43 | 52.24686 | 4.62765 | 1548 ft | 148 kts | 61° |
| 2026-04-28 19:43 | 52.25223 | 4.64155 | 1354 ft | 142 kts | 61° |
| 2026-04-28 19:43 | 52.25736 | 4.65483 | 1166 ft | 135 kts | 60° |
| 2026-04-28 19:44 | 52.26212 | 4.66717 | 1011 ft | 119 kts | 59° |
| 2026-04-28 19:44 | 52.26636 | 4.67815 | 854 ft | 115 kts | 58° |
| 2026-04-28 19:44 | 52.27057 | 4.68909 | 705 ft | 113 kts | 57° |
| 2026-04-28 19:44 | 52.27485 | 4.70022 | 563 ft | 117 kts | 57° |
| 2026-04-28 19:45 | 52.27926 | 4.71158 | 395 ft | 120 kts | 56° |
| 2026-04-28 19:45 | 52.28360 | 4.72321 | 247 ft | 121 kts | 55° |
| 2026-04-28 19:45 | 52.28812 | 4.73472 | 106 ft | 120 kts | 56° |
| 2026-04-28 19:45 | 52.29243 | 4.74590 | 20 ft | 105 kts | 57° |
| 2026-04-28 19:46 | 52.29472 | 4.75183 | 14 ft | 24 kts | 58° |
| 2026-04-28 19:46 | 52.29597 | 4.75362 | 17 ft | 25 kts | 1° |
| 2026-04-28 19:46 | 52.29685 | 4.75300 | 17 ft | 1 kts | 329° |
| 2026-04-28 19:46 | 52.29690 | 4.75295 | 16 ft | 4 kts | 330° |
| 2026-04-28 19:47 | 52.29746 | 4.75301 | 17 ft | 11 kts | 42° |
| 2026-04-28 19:47 | 52.29780 | 4.75416 | 17 ft | 12 kts | 68° |
| 2026-04-28 19:47 | 52.29825 | 4.75553 | 16 ft | 15 kts | 59° |
| 2026-04-28 19:47 | 52.29884 | 4.75709 | 16 ft | 17 kts | 57° |
| 2026-04-28 19:48 | 52.29957 | 4.75888 | 12 ft | 20 kts | 56° |
| 2026-04-28 19:48 | 52.30031 | 4.76084 | 12 ft | 21 kts | 60° |
| 2026-04-28 19:48 | 52.30110 | 4.76296 | 14 ft | 22 kts | 58° |
| 2026-04-28 19:48 | 52.30198 | 4.76521 | 14 ft | 25 kts | 57° |